NCAR-RAP Real-Time Weather Data

Output produced by METARs form (23 June 2021  08:19 UTC)
found at http://weather.rap.ucar.edu/surface/
 
CYMJ 222326Z 30010G16KT 15SM FEW100 FEW170 BKN300 29/06 A2957 RMK AC1AC2CI5 LAST ONS / NXT 231000 UTC SLP006
CYMJ 222300Z 30013KT 15SM FEW100 FEW170 BKN300 30/06 A2957 RMK AC1AC2CI5 SLP007
CYMJ 222200Z 29011G19KT 15SM FEW100 FEW160 BKN300 30/04 A2958 RMK AC1AC1CI6 SLP009
CYMJ 222100Z 28012G17KT 15SM FEW100 BKN350 30/05 A2958 RMK AC2CI4 SLP010
 
CZMJ 230800Z AUTO 34005KT 15/07 RMK AO1 SLP997 T01530068 58003
CZMJ 230700Z AUTO 24006KT 18/06 RMK AO1 SLP998 T01760062 57002
CZMJ 230600Z AUTO 20011KT 19/08 RMK AO1 SLP999 T01940078 58001
CZMJ 230500Z AUTO 20010KT 21/09 RMK AO1 SLP000 T02100094 56004
CZMJ 230400Z AUTO 19006KT 20/12 RMK AO1 SLP002 T02010118 56007
CZMJ 230300Z AUTO 17005KT 22/11 RMK AO1 SLP002 T02150109 56011
CZMJ 230200Z AUTO 15004KT 26/12 RMK AO1 SLP005 T02600115 58010
CZMJ 230100Z AUTO 32004KT 29/06 RMK AO1 SLP008 T02860055 58008
CZMJ 230000Z AUTO 30007KT 29/05 RMK AO1 SLP015 T02870052 57006
CZMJ 222300Z AUTO 31009KT 30/04 RMK AO1 PK WND 31018/2204 SLP017 T03010035 57006
CZMJ 222200Z AUTO 30014KT 31/01 RMK AO1 PK WND 28020/2122 SLP018 T03070006 56011
CZMJ 222100Z AUTO 28013G18KT 31/02 RMK AO1 PK WND 26023/2023 SLP019 T03100020 56019